Lawrence, MA (01840)

10:05 AM EDT on July 29, 2016 (GMT -0400)
lawrence | | Change Station

Elev 98 ft 42.72 °N, 71.15 °W | Updated 3 minutes ago

Light Rain
Light Rain
71.3 °F
Feels Like 71.3 °F
N
0.0
Wind Variable Wind from NW
Gusts 1.0 mph

Today
High -- | Low -- °F
--% Chance of Precip.
Yesterday
High -- | Low -- °F
Precip. -- in
Pressure 29.89 in
Visibility 10.0 miles
Clouds Overcast 11000 ft
Dew Point 69 °F
Humidity 93%
Rainfall 0.09 in
Snow Depth Not available.
5:33 AM 8:07 PM
Waning Crescent, 22% visible
METAR KLWM 291354Z 02009KT 10SM -RA OVC110 23/21 A2990 RMK AO2 SLP122 P0000 T02280206
Pressure 29.89 in
Visibility 10.0 miles
Clouds Overcast 11000 ft
Dew Point 69 °F
Humidity 93%
Rainfall 0.09 in
Snow Depth Not available.
5:33 AM 8:07 PM
Waning Crescent, 22% visible
METAR KLWM 291354Z 02009KT 10SM -RA OVC110 23/21 A2990 RMK AO2 SLP122 P0000 T02280206

10-Day Weather Forecast

Almanac

Astronomy

Jul. 29, 2016 Rise Set
Actual Time
Civil Twilight
Nautical Twilight
Astronomical Twilight
Moon
Length of Visible Light
Length of Day
Tomorrow will be .
, % of the Moon is Illuminated

Today's Extremes

State Highs State Lows

Community

WunderPhotos

Upload Photos

1,928,341 photos uploaded!

WunderBlog® & News

Nearby

Air Quality

  Air Quality AQ Index Pollutant
Not available.

Snow Depth

Station Depth Elevation

Earthquake Activity

City Distance Mag. Time & Date
Minimum magnitude displayed is 2.5.

Coastal Water Temperatures

Place Temperature

Stations

Nearby Weather Stations

Station Location Temp. Windchill Dew Point Humidity Wind Precip. Elev Updated Type
                   

Watches & Warnings

There are currently no watches in effect.